Normans Crossing, Texas
Current Conditions -  °F | °C
As of 11:58 AM on Thursday 23 Oct 2014 (Local Time) from KGRK Reporting Station
Scattered Clouds Scattered Clouds  
Wind Chill: 75°   Ceiling: Unl
Heat Index: 75°   Visibility: 10mi
Dew Point: 61°   Wind: 2mph
Humidity: 61%   Direction: NA
Pressure: 30.16"   Gusts: NA
Location:  30.5793°N, 97.5096°W
Report Text: KGRK 231658Z AUTO VRB02KT 10SM SCT100 24/16 A3016 RMK AO2 SLPNO
Loading
Personal Weather Stations






























Interactive Weather Map
Tropical Storm Tracking
New forecast layout! Learn more

10-Day Weather Forecast

Advertisements
Track Severe Weather on mobile